createdAt,value
2023-09-06T00:02:13.191Z,25.37
2023-09-06T00:04:39.909Z,25.34
2023-09-06T00:07:07.230Z,25.35
2023-09-06T00:09:33.841Z,25.35
2023-09-06T00:12:00.551Z,25.27
2023-09-06T00:14:30.523Z,25.28
2023-09-06T00:16:57.417Z,25.15
2023-09-06T00:19:25.339Z,25.18
2023-09-06T00:21:52.045Z,25.29
2023-09-06T00:24:20.421Z,25.34
2023-09-06T00:26:46.957Z,25.39
2023-09-06T00:29:13.475Z,25.20
2023-09-06T00:31:40.023Z,25.20
2023-09-06T00:34:06.587Z,25.17
2023-09-06T00:36:34.625Z,25.19
2023-09-06T00:39:01.314Z,25.25
2023-09-06T00:41:28.258Z,25.28
2023-09-06T00:43:54.704Z,25.33
2023-09-06T00:46:21.761Z,25.27
2023-09-06T00:48:51.931Z,25.29
2023-09-06T00:51:20.538Z,25.27
2023-09-06T00:53:49.002Z,25.32
2023-09-06T00:56:18.414Z,25.34
2023-09-06T00:58:46.364Z,25.36
2023-09-06T01:01:13.128Z,25.29
2023-09-06T01:03:42.766Z,25.31
2023-09-06T01:06:38.306Z,25.34
2023-09-06T01:09:06.977Z,25.30
2023-09-06T01:11:38.271Z,25.35
2023-09-06T01:14:08.242Z,25.33
2023-09-06T01:16:52.607Z,25.37
2023-09-06T01:19:19.504Z,25.35
2023-09-06T01:22:19.395Z,25.33
2023-09-06T01:24:49.890Z,25.22
2023-09-06T01:27:17.094Z,25.21
2023-09-06T01:29:43.616Z,25.17
2023-09-06T01:32:10.084Z,25.19
2023-09-06T01:34:36.632Z,25.25
2023-09-06T01:37:03.383Z,25.30
2023-09-06T01:39:30.029Z,25.26
2023-09-06T01:41:56.648Z,25.32
2023-09-06T01:44:23.139Z,25.29
2023-09-06T01:46:49.664Z,25.22
2023-09-06T01:49:16.236Z,25.16
2023-09-06T01:51:42.776Z,25.19
2023-09-06T01:54:10.373Z,25.25
2023-09-06T01:56:36.947Z,25.21
2023-09-06T01:59:04.332Z,25.24
2023-09-06T02:01:32.048Z,25.05
2023-09-06T02:03:59.868Z,25.06
2023-09-06T02:06:26.554Z,25.07
2023-09-06T02:08:54.021Z,25.08
2023-09-06T02:11:22.035Z,25.28
2023-09-06T02:13:48.595Z,25.38
2023-09-06T02:16:17.558Z,25.36
2023-09-06T02:18:44.194Z,25.42
2023-09-06T02:21:10.761Z,25.44
2023-09-06T02:23:37.843Z,25.40
2023-09-06T02:26:04.306Z,25.40
2023-09-06T02:28:31.052Z,25.37
2023-09-06T02:30:57.742Z,25.38
2023-09-06T02:33:24.266Z,25.39
2023-09-06T02:35:50.968Z,25.39
2023-09-06T02:38:18.162Z,25.38
2023-09-06T02:40:44.994Z,25.41
2023-09-06T02:43:12.690Z,25.39
2023-09-06T02:45:39.514Z,25.39
2023-09-06T02:48:14.537Z,25.38
2023-09-06T02:50:41.633Z,25.40
2023-09-06T02:53:20.924Z,25.38
2023-09-06T02:55:49.306Z,25.36
2023-09-06T02:58:19.393Z,25.39
2023-09-06T03:00:48.666Z,25.39
2023-09-06T03:03:17.315Z,25.38
2023-09-06T03:05:44.168Z,25.39
2023-09-06T03:08:11.888Z,25.37
2023-09-06T03:10:43.676Z,25.35
2023-09-06T03:13:12.837Z,25.36
2023-09-06T03:15:44.691Z,25.35
2023-09-06T03:18:11.771Z,25.34
2023-09-06T03:20:44.453Z,25.35
2023-09-06T03:23:19.691Z,25.32
2023-09-06T03:25:58.869Z,25.32
2023-09-06T03:28:26.977Z,25.31
2023-09-06T03:30:54.238Z,25.31
2023-09-06T03:33:20.879Z,25.29
2023-09-06T03:35:47.520Z,25.33
2023-09-06T03:38:18.747Z,25.30
2023-09-06T03:40:45.997Z,25.33
2023-09-06T03:43:28.068Z,25.32
2023-09-06T03:45:56.572Z,25.30
2023-09-06T03:48:25.009Z,25.31
2023-09-06T03:50:54.514Z,25.27
2023-09-06T03:53:21.042Z,25.28
2023-09-06T03:55:47.834Z,25.28
2023-09-06T03:58:14.594Z,25.31
2023-09-06T04:00:44.776Z,25.28
2023-09-06T04:03:17.703Z,25.27
2023-09-06T04:05:45.087Z,25.29
2023-09-06T04:08:12.016Z,25.30
2023-09-06T04:10:39.702Z,25.28
2023-09-06T04:13:10.847Z,25.27
2023-09-06T04:15:38.524Z,25.27
2023-09-06T04:18:07.357Z,25.28
2023-09-06T04:20:37.804Z,25.28
2023-09-06T04:23:06.621Z,25.24
2023-09-06T04:25:34.546Z,25.25
2023-09-06T04:28:02.587Z,25.23
2023-09-06T04:30:29.801Z,25.23
2023-09-06T04:32:58.885Z,25.24
2023-09-06T04:35:39.838Z,25.23
2023-09-06T04:38:06.574Z,25.24
2023-09-06T04:40:33.166Z,25.19
2023-09-06T04:43:00.075Z,25.21
2023-09-06T04:45:26.650Z,25.24
2023-09-06T04:47:53.293Z,25.20
2023-09-06T04:50:19.915Z,25.21
2023-09-06T04:52:47.893Z,25.21
2023-09-06T04:55:15.864Z,25.17
2023-09-06T04:57:42.962Z,25.19
2023-09-06T05:00:24.974Z,25.21
2023-09-06T05:02:55.314Z,25.18
2023-09-06T05:05:22.463Z,25.18
2023-09-06T05:07:48.978Z,25.17
2023-09-06T05:10:15.436Z,25.16
2023-09-06T05:12:42.015Z,25.15
2023-09-06T05:15:10.133Z,25.16
2023-09-06T05:17:37.002Z,25.15
2023-09-06T05:20:26.895Z,25.15
2023-09-06T05:22:53.862Z,25.16
2023-09-06T05:25:20.430Z,25.18
2023-09-06T05:27:46.990Z,25.14
2023-09-06T05:30:13.859Z,25.15
2023-09-06T05:32:40.598Z,25.16
2023-09-06T05:35:07.444Z,25.14
2023-09-06T05:37:34.125Z,25.15
2023-09-06T05:40:00.669Z,25.13
2023-09-06T05:42:27.160Z,25.13
2023-09-06T05:44:53.728Z,25.15
2023-09-06T05:47:20.362Z,25.13
2023-09-06T05:49:48.006Z,25.13
2023-09-06T05:52:14.851Z,25.14
2023-09-06T05:54:41.434Z,25.13
2023-09-06T05:57:07.988Z,25.00
2023-09-06T05:59:34.569Z,25.02
2023-09-06T06:02:01.274Z,24.98
2023-09-06T06:04:28.107Z,25.00
2023-09-06T06:06:55.927Z,25.04
2023-09-06T06:09:25.901Z,25.08
2023-09-06T06:11:55.550Z,25.06
2023-09-06T06:14:24.067Z,25.06
2023-09-06T06:16:50.597Z,25.05
2023-09-06T06:19:21.087Z,24.91
2023-09-06T06:21:47.778Z,24.96
2023-09-06T06:24:14.720Z,24.94
2023-09-06T06:26:41.274Z,24.95
2023-09-06T06:29:08.058Z,24.97
2023-09-06T06:31:34.817Z,24.93
2023-09-06T06:34:01.538Z,24.96
2023-09-06T06:36:28.031Z,24.79
2023-09-06T06:38:54.542Z,24.81
2023-09-06T06:41:24.375Z,24.81
2023-09-06T06:43:51.205Z,24.81
2023-09-06T06:46:28.950Z,24.86
2023-09-06T06:48:56.120Z,24.88
2023-09-06T06:51:22.953Z,24.85
2023-09-06T06:53:49.604Z,24.82
2023-09-06T06:56:18.422Z,24.85
2023-09-06T06:58:45.009Z,24.82
2023-09-06T07:01:11.623Z,24.87
2023-09-06T07:03:38.323Z,24.82
2023-09-06T07:06:06.439Z,24.85
2023-09-06T07:08:32.998Z,24.88
2023-09-06T07:11:00.704Z,24.86
2023-09-06T07:13:27.274Z,24.89
2023-09-06T07:15:53.843Z,24.83
2023-09-06T07:18:20.533Z,24.84
2023-09-06T07:20:48.392Z,24.82
2023-09-06T07:23:15.303Z,24.82
2023-09-06T07:25:50.516Z,24.83
2023-09-06T07:28:17.136Z,24.86
2023-09-06T07:30:43.866Z,24.86
2023-09-06T07:33:12.136Z,24.88
2023-09-06T07:35:38.700Z,24.87
2023-09-06T07:38:05.358Z,24.87
2023-09-06T07:40:31.836Z,24.88
2023-09-06T07:42:58.333Z,24.88
2023-09-06T07:45:24.901Z,24.91
2023-09-06T07:47:52.596Z,24.91
2023-09-06T07:50:19.477Z,24.88
2023-09-06T07:52:46.597Z,24.90
2023-09-06T07:55:14.263Z,24.82
2023-09-06T07:57:40.792Z,24.77
2023-09-06T08:00:08.042Z,24.84
2023-09-06T08:02:34.700Z,24.90
2023-09-06T08:05:01.373Z,24.82
2023-09-06T08:07:27.914Z,24.85
2023-09-06T08:09:54.398Z,24.82
2023-09-06T08:12:20.914Z,24.86
2023-09-06T08:14:48.002Z,24.79
2023-09-06T08:17:14.500Z,24.82
2023-09-06T08:19:41.011Z,24.85
2023-09-06T08:22:07.608Z,24.93
2023-09-06T08:24:34.356Z,24.96
2023-09-06T08:27:00.880Z,24.94
2023-09-06T08:29:27.401Z,24.92
2023-09-06T08:31:54.112Z,24.95
2023-09-06T08:34:20.688Z,24.99
2023-09-06T08:36:47.280Z,24.94
2023-09-06T08:39:13.908Z,24.96
2023-09-06T08:41:42.825Z,24.99
2023-09-06T08:44:12.356Z,25.01
2023-09-06T08:46:42.812Z,24.99
2023-09-06T08:49:10.714Z,24.98
2023-09-06T08:51:37.894Z,25.00
2023-09-06T08:54:08.600Z,24.95
2023-09-06T08:56:35.980Z,24.98
2023-09-06T08:59:02.550Z,24.99
2023-09-06T09:01:30.049Z,24.97
2023-09-06T09:03:56.764Z,24.95
2023-09-06T09:06:23.464Z,24.96
2023-09-06T09:08:50.436Z,24.94
2023-09-06T09:11:21.809Z,24.95
2023-09-06T09:13:48.696Z,24.96
2023-09-06T09:16:17.779Z,24.97
2023-09-06T09:18:45.713Z,24.96
2023-09-06T09:21:13.672Z,24.96
2023-09-06T09:23:48.540Z,24.97
2023-09-06T09:26:17.416Z,24.97
2023-09-06T09:28:44.104Z,24.95
2023-09-06T09:31:16.831Z,24.97
2023-09-06T09:33:47.413Z,24.99
2023-09-06T09:36:16.028Z,25.01
2023-09-06T09:38:43.701Z,25.01
2023-09-06T09:41:10.750Z,25.00
2023-09-06T09:43:37.433Z,25.00
2023-09-06T09:46:04.005Z,24.99
2023-09-06T09:48:31.711Z,25.01
2023-09-06T09:51:02.313Z,24.92
2023-09-06T09:53:32.903Z,24.95
2023-09-06T09:56:07.212Z,24.78
2023-09-06T09:58:37.364Z,24.72
2023-09-06T10:01:07.654Z,24.68
2023-09-06T10:03:36.390Z,24.66
2023-09-06T10:06:04.392Z,24.62
2023-09-06T10:08:34.475Z,24.70
2023-09-06T10:11:01.006Z,24.72
2023-09-06T10:13:28.937Z,24.61
2023-09-06T10:15:57.600Z,24.61
2023-09-06T10:18:24.405Z,24.63
2023-09-06T10:20:51.693Z,24.62
2023-09-06T10:23:18.589Z,24.59
2023-09-06T10:25:54.822Z,24.60
2023-09-06T10:28:24.881Z,24.61
2023-09-06T10:30:59.112Z,24.66
2023-09-06T10:33:34.608Z,24.66
2023-09-06T10:36:07.323Z,24.65
2023-09-06T10:38:36.671Z,24.63
2023-09-06T10:41:07.768Z,24.67
2023-09-06T10:43:54.773Z,24.67
2023-09-06T10:46:25.186Z,24.65
2023-09-06T10:49:25.224Z,24.68
2023-09-06T10:52:09.499Z,24.67
2023-09-06T10:54:40.501Z,24.66
2023-09-06T10:57:12.021Z,24.68
2023-09-06T10:59:40.162Z,24.82
2023-09-06T11:02:23.120Z,24.92
2023-09-06T11:05:03.440Z,24.80
2023-09-06T11:07:49.260Z,24.77
2023-09-06T11:10:23.838Z,24.76
2023-09-06T11:12:52.255Z,24.80
2023-09-06T11:15:18.909Z,24.81
2023-09-06T11:17:47.798Z,24.82
2023-09-06T11:20:17.625Z,24.74
2023-09-06T11:22:58.165Z,24.73
2023-09-06T11:25:26.259Z,24.69
2023-09-06T11:27:56.989Z,24.83
2023-09-06T11:30:24.713Z,24.87
2023-09-06T11:32:52.494Z,24.86
2023-09-06T11:35:22.182Z,24.88
2023-09-06T11:37:51.821Z,24.92
2023-09-06T11:40:21.831Z,24.86
2023-09-06T11:42:53.657Z,24.87
2023-09-06T11:45:24.467Z,24.91
2023-09-06T11:47:54.110Z,24.92
2023-09-06T11:50:24.933Z,24.91
2023-09-06T11:52:58.571Z,24.92
2023-09-06T11:55:27.717Z,24.89
2023-09-06T11:57:58.211Z,24.92
2023-09-06T12:00:44.795Z,24.91
2023-09-06T12:03:14.442Z,24.90
2023-09-06T12:05:50.627Z,24.98
2023-09-06T12:08:23.451Z,25.04
2023-09-06T12:10:55.718Z,24.97
2023-09-06T12:13:29.585Z,24.93
2023-09-06T12:16:00.209Z,24.94
2023-09-06T12:18:30.108Z,24.93
2023-09-06T12:20:59.462Z,24.89
2023-09-06T12:23:30.772Z,24.88
2023-09-06T12:25:58.776Z,24.91
2023-09-06T12:28:25.805Z,24.92
2023-09-06T12:31:01.573Z,25.03
2023-09-06T12:33:31.030Z,25.12
2023-09-06T12:36:01.877Z,25.15
2023-09-06T12:38:30.437Z,25.20
2023-09-06T12:40:58.346Z,25.21
2023-09-06T12:43:27.103Z,25.10
2023-09-06T12:45:58.404Z,25.23
2023-09-06T12:48:26.751Z,25.20
2023-09-06T12:50:57.337Z,25.07
2023-09-06T12:53:24.909Z,25.09
2023-09-06T12:55:51.530Z,25.07
2023-09-06T12:58:18.850Z,25.02
2023-09-06T13:00:45.475Z,24.99
2023-09-06T13:03:12.561Z,24.99
2023-09-06T13:05:43.018Z,25.05
2023-09-06T13:08:09.833Z,24.97
2023-09-06T13:10:36.422Z,24.98
2023-09-06T13:13:03.184Z,24.92
2023-09-06T13:15:29.782Z,24.91
2023-09-06T13:17:56.719Z,24.89
2023-09-06T13:20:23.301Z,24.90
2023-09-06T13:22:49.784Z,24.93
2023-09-06T13:25:16.492Z,24.90
2023-09-06T13:27:44.242Z,24.89
2023-09-06T13:30:11.555Z,24.87
2023-09-06T13:32:38.826Z,24.86
2023-09-06T13:35:06.205Z,24.93
2023-09-06T13:37:35.862Z,24.97
2023-09-06T13:40:03.179Z,25.10
2023-09-06T13:42:29.857Z,25.18
2023-09-06T13:44:56.601Z,25.26
2023-09-06T13:47:24.060Z,25.29
2023-09-06T13:49:51.754Z,25.25
2023-09-06T13:52:18.796Z,25.32
2023-09-06T13:54:45.380Z,25.33
2023-09-06T13:57:11.918Z,25.19
2023-09-06T13:59:39.867Z,25.19
2023-09-06T14:02:07.312Z,25.28
2023-09-06T14:04:37.812Z,25.30
2023-09-06T14:07:04.849Z,25.32
2023-09-06T14:09:31.413Z,25.30
2023-09-06T14:11:57.963Z,25.23
2023-09-06T14:14:24.979Z,25.24
2023-09-06T14:16:52.105Z,25.28
2023-09-06T14:19:20.585Z,25.33
2023-09-06T14:21:47.431Z,25.15
2023-09-06T14:24:15.479Z,25.11
2023-09-06T14:26:45.194Z,25.08
2023-09-06T14:29:13.336Z,25.11
2023-09-06T14:31:40.872Z,25.12
2023-09-06T14:34:07.781Z,25.16
2023-09-06T14:36:34.487Z,25.24
2023-09-06T14:39:02.376Z,25.18
2023-09-06T14:41:30.596Z,25.16
2023-09-06T14:43:58.397Z,25.18
2023-09-06T14:46:25.494Z,25.15
2023-09-06T14:48:53.306Z,25.15
2023-09-06T14:51:20.176Z,25.22
2023-09-06T14:53:46.946Z,25.16
2023-09-06T14:56:14.572Z,25.23
2023-09-06T14:58:41.110Z,25.21
2023-09-06T15:01:09.579Z,25.24
2023-09-06T15:03:36.557Z,25.24
2023-09-06T15:06:07.526Z,25.41
2023-09-06T15:08:34.234Z,25.43
2023-09-06T15:11:00.806Z,25.46
2023-09-06T15:13:27.319Z,25.42
2023-09-06T15:15:54.056Z,25.38
2023-09-06T15:18:20.631Z,25.36
2023-09-06T15:20:47.720Z,25.32
2023-09-06T15:23:15.122Z,25.24
2023-09-06T15:25:42.215Z,25.23
2023-09-06T15:28:08.885Z,25.33
2023-09-06T15:30:35.818Z,25.38
2023-09-06T15:33:03.514Z,25.38
2023-09-06T15:35:30.324Z,25.29
2023-09-06T15:37:58.456Z,25.25
2023-09-06T15:40:25.512Z,25.28
2023-09-06T15:42:52.114Z,25.28
2023-09-06T15:45:18.855Z,25.26
2023-09-06T15:47:46.762Z,25.32
2023-09-06T15:50:16.561Z,25.39
2023-09-06T15:52:48.696Z,25.42
2023-09-06T15:55:16.139Z,25.40
2023-09-06T15:57:46.632Z,25.37
2023-09-06T16:00:30.029Z,25.31
2023-09-06T16:02:58.289Z,25.26
2023-09-06T16:05:25.130Z,25.33
2023-09-06T16:07:51.660Z,25.34
2023-09-06T16:10:18.507Z,25.34
2023-09-06T16:12:48.562Z,25.40
2023-09-06T16:15:17.146Z,25.52
2023-09-06T16:17:45.995Z,25.41
2023-09-06T16:20:13.098Z,25.37
2023-09-06T16:22:39.648Z,25.38
2023-09-06T16:25:08.697Z,25.40
2023-09-06T16:27:35.571Z,25.38
2023-09-06T16:30:05.532Z,25.48
2023-09-06T16:32:33.282Z,25.53
2023-09-06T16:35:00.117Z,25.47
2023-09-06T16:37:26.743Z,25.51
2023-09-06T16:39:53.343Z,25.54
2023-09-06T16:42:20.668Z,25.59
2023-09-06T16:44:47.200Z,25.57
2023-09-06T16:47:13.948Z,25.51
2023-09-06T16:49:43.659Z,25.55
2023-09-06T16:52:10.370Z,25.58
2023-09-06T16:54:37.518Z,25.58
2023-09-06T16:57:05.225Z,25.57
2023-09-06T16:59:32.409Z,25.54
2023-09-06T17:01:59.268Z,25.59
2023-09-06T17:04:26.382Z,25.61
2023-09-06T17:06:53.007Z,25.59
2023-09-06T17:09:19.510Z,25.62
2023-09-06T17:11:46.102Z,25.60
2023-09-06T17:14:12.720Z,25.64
2023-09-06T17:16:40.536Z,25.65
2023-09-06T17:19:11.058Z,25.59
2023-09-06T17:21:40.165Z,25.60
2023-09-06T17:24:09.580Z,25.66
2023-09-06T17:26:37.927Z,25.60
2023-09-06T17:29:09.818Z,25.52
2023-09-06T17:31:36.533Z,25.47
2023-09-06T17:34:03.656Z,25.48
2023-09-06T17:36:30.427Z,25.56
2023-09-06T17:38:57.111Z,25.58
2023-09-06T17:41:27.157Z,25.59
2023-09-06T17:43:54.016Z,25.54
2023-09-06T17:46:25.632Z,25.53
2023-09-06T17:48:54.221Z,25.43
2023-09-06T17:51:21.511Z,25.39
2023-09-06T17:53:48.915Z,25.38
2023-09-06T17:56:17.512Z,25.31
2023-09-06T17:58:46.408Z,25.38
2023-09-06T18:01:16.909Z,25.40
2023-09-06T18:03:46.409Z,25.44
2023-09-06T18:06:15.873Z,25.54
2023-09-06T18:08:46.438Z,25.56
2023-09-06T18:11:13.116Z,25.57
2023-09-06T18:13:41.999Z,25.46
2023-09-06T18:16:12.837Z,25.51
2023-09-06T18:18:40.201Z,25.65
2023-09-06T18:21:10.396Z,25.60
2023-09-06T18:23:38.447Z,25.61
2023-09-06T18:26:08.803Z,25.60
2023-09-06T18:28:35.476Z,25.66
2023-09-06T18:31:02.561Z,25.59
2023-09-06T18:33:29.238Z,25.60
2023-09-06T18:35:56.581Z,25.60
2023-09-06T18:38:24.403Z,25.63
2023-09-06T18:40:55.377Z,25.54
2023-09-06T18:43:23.538Z,25.54
2023-09-06T18:45:51.699Z,25.51
2023-09-06T18:48:21.494Z,25.56
2023-09-06T18:50:49.240Z,25.59
2023-09-06T18:53:15.844Z,25.59
2023-09-06T18:55:47.142Z,25.64
2023-09-06T18:58:15.423Z,25.63
2023-09-06T19:00:42.736Z,25.64
2023-09-06T19:03:14.064Z,25.62
2023-09-06T19:05:42.762Z,25.62
2023-09-06T19:08:12.906Z,25.60
2023-09-06T19:10:45.574Z,25.55
2023-09-06T19:13:13.754Z,25.45
2023-09-06T19:15:40.607Z,25.46
2023-09-06T19:18:07.591Z,25.48
2023-09-06T19:20:37.256Z,25.49
2023-09-06T19:23:07.603Z,25.44
2023-09-06T19:25:37.491Z,25.54
2023-09-06T19:28:06.332Z,25.57
2023-09-06T19:30:33.523Z,25.60
2023-09-06T19:33:00.113Z,25.59
2023-09-06T19:35:26.727Z,25.61
2023-09-06T19:37:53.249Z,25.62
2023-09-06T19:40:19.798Z,25.60
2023-09-06T19:42:46.271Z,25.60
2023-09-06T19:45:12.753Z,25.64
2023-09-06T19:47:39.595Z,25.53
2023-09-06T19:50:08.075Z,25.60
2023-09-06T19:52:34.695Z,25.63
2023-09-06T19:55:02.322Z,25.62
2023-09-06T19:57:30.789Z,25.61
2023-09-06T19:59:58.490Z,25.57
2023-09-06T20:02:25.199Z,25.56
2023-09-06T20:04:52.063Z,25.57
2023-09-06T20:07:18.874Z,25.53
2023-09-06T20:09:45.347Z,25.54
2023-09-06T20:12:11.945Z,25.41
2023-09-06T20:14:38.446Z,25.43
2023-09-06T20:17:04.976Z,25.42
2023-09-06T20:19:32.312Z,25.46
2023-09-06T20:21:59.054Z,25.59
2023-09-06T20:24:25.595Z,25.50
2023-09-06T20:26:52.159Z,25.44
2023-09-06T20:29:18.806Z,25.43
2023-09-06T20:31:45.866Z,25.45
2023-09-06T20:34:13.372Z,25.49
2023-09-06T20:36:40.003Z,25.50
2023-09-06T20:39:06.624Z,25.33
2023-09-06T20:41:33.258Z,25.41
2023-09-06T20:43:59.789Z,25.42
2023-09-06T20:46:26.350Z,25.44
2023-09-06T20:48:52.978Z,25.42
2023-09-06T20:51:19.506Z,25.41
2023-09-06T20:53:47.656Z,25.40
2023-09-06T20:56:14.235Z,25.36
2023-09-06T20:58:40.756Z,25.34
2023-09-06T21:01:20.518Z,25.39
2023-09-06T21:03:47.550Z,25.42
2023-09-06T21:06:14.367Z,25.39
2023-09-06T21:08:42.385Z,25.37
2023-09-06T21:11:09.234Z,25.34
2023-09-06T21:13:35.789Z,25.35
2023-09-06T21:16:02.916Z,25.34
2023-09-06T21:18:30.900Z,25.33
2023-09-06T21:20:58.316Z,25.36
2023-09-06T21:23:25.093Z,25.36
2023-09-06T21:25:51.746Z,25.33
2023-09-06T21:28:18.455Z,25.33
2023-09-06T21:30:48.597Z,25.40
2023-09-06T21:33:16.210Z,25.43
2023-09-06T21:35:44.529Z,25.42
2023-09-06T21:38:12.073Z,25.46
2023-09-06T21:40:43.470Z,25.42
2023-09-06T21:43:18.262Z,25.39
2023-09-06T21:45:46.279Z,25.42
2023-09-06T21:48:13.058Z,25.44
2023-09-06T21:50:41.911Z,25.43
2023-09-06T21:53:09.554Z,25.43
2023-09-06T21:55:36.310Z,25.36
2023-09-06T21:58:10.646Z,25.34
2023-09-06T22:00:37.963Z,25.37
2023-09-06T22:03:04.866Z,25.37
2023-09-06T22:05:31.566Z,25.37
2023-09-06T22:07:58.158Z,25.31
2023-09-06T22:10:24.779Z,25.35
2023-09-06T22:12:51.426Z,25.28
2023-09-06T22:15:17.957Z,25.29
2023-09-06T22:17:44.523Z,25.29
2023-09-06T22:20:11.447Z,25.39
2023-09-06T22:22:38.100Z,25.40
2023-09-06T22:25:06.294Z,25.41
2023-09-06T22:27:33.079Z,25.42
2023-09-06T22:29:59.934Z,25.41
2023-09-06T22:32:26.948Z,25.36
2023-09-06T22:34:53.657Z,25.33
2023-09-06T22:37:20.309Z,25.34
2023-09-06T22:39:46.976Z,25.32
2023-09-06T22:42:13.860Z,25.37
2023-09-06T22:44:40.561Z,25.38
2023-09-06T22:47:09.078Z,25.42
2023-09-06T22:49:38.449Z,25.39
2023-09-06T22:52:07.531Z,25.32
2023-09-06T22:54:36.940Z,25.29
2023-09-06T22:57:04.546Z,25.33
2023-09-06T22:59:31.748Z,25.35
2023-09-06T23:01:58.726Z,25.40
2023-09-06T23:04:25.745Z,25.42
2023-09-06T23:06:52.885Z,25.41
2023-09-06T23:09:20.176Z,25.43
2023-09-06T23:11:51.120Z,25.41
2023-09-06T23:14:19.590Z,25.43
2023-09-06T23:16:49.829Z,25.36
2023-09-06T23:19:21.840Z,25.38
2023-09-06T23:21:52.324Z,25.35
2023-09-06T23:24:19.925Z,25.34
2023-09-06T23:26:48.929Z,25.35
2023-09-06T23:29:17.323Z,25.37
2023-09-06T23:31:54.203Z,25.40
2023-09-06T23:34:27.881Z,25.45
2023-09-06T23:36:57.297Z,25.45
2023-09-06T23:39:28.623Z,25.38
2023-09-06T23:41:58.713Z,25.36
2023-09-06T23:44:25.430Z,25.39
2023-09-06T23:46:52.082Z,25.39
2023-09-06T23:49:20.996Z,25.38
2023-09-06T23:51:48.125Z,25.36
2023-09-06T23:54:15.125Z,25.42
2023-09-06T23:56:41.871Z,25.41
2023-09-06T23:59:08.399Z,25.42
